createdAt,value
2019-05-15T00:02:11.943Z,88.30
2019-05-15T00:04:42.741Z,88.50
2019-05-15T00:07:13.721Z,88.50
2019-05-15T00:09:44.746Z,88.10
2019-05-15T00:12:15.610Z,87.90
2019-05-15T00:14:48.314Z,87.60
2019-05-15T00:17:19.125Z,87.40
2019-05-15T00:19:50.290Z,87.20
2019-05-15T00:22:21.081Z,86.90
2019-05-15T00:24:52.022Z,87.00
2019-05-15T00:27:22.869Z,86.90
2019-05-15T00:29:53.668Z,86.90
2019-05-15T00:32:24.570Z,86.50
2019-05-15T00:34:55.449Z,86.30
2019-05-15T00:37:28.757Z,86.20
2019-05-15T00:39:59.290Z,86.00
2019-05-15T00:42:30.531Z,85.70
2019-05-15T00:45:01.823Z,85.80
2019-05-15T00:47:33.037Z,85.40
2019-05-15T00:50:04.054Z,85.20
2019-05-15T00:52:34.867Z,85.20
2019-05-15T00:55:08.619Z,85.50
2019-05-15T00:57:39.555Z,85.40
2019-05-15T01:00:10.973Z,85.10
2019-05-15T01:02:42.200Z,84.50
2019-05-15T01:05:13.442Z,84.30
2019-05-15T01:07:44.505Z,84.00
2019-05-15T01:10:15.698Z,83.90
2019-05-15T01:12:48.547Z,83.30
2019-05-15T01:15:19.074Z,82.90
2019-05-15T01:17:50.244Z,82.60
2019-05-15T01:20:21.334Z,82.40
2019-05-15T01:22:52.377Z,81.70
2019-05-15T01:25:23.625Z,81.60
2019-05-15T01:27:55.038Z,81.50
2019-05-15T01:30:26.045Z,80.80
2019-05-15T01:32:59.063Z,80.70
2019-05-15T01:35:29.245Z,79.50
2019-05-15T01:38:00.228Z,79.10
2019-05-15T01:40:31.740Z,79.40
2019-05-15T01:43:02.590Z,79.00
2019-05-15T01:45:33.553Z,78.80
2019-05-15T01:48:04.439Z,78.70
2019-05-15T01:50:35.228Z,77.50
2019-05-15T01:53:08.012Z,77.80
2019-05-15T01:55:39.401Z,76.70
2019-05-15T01:58:10.831Z,77.00
2019-05-15T02:00:42.043Z,75.70
2019-05-15T02:03:12.923Z,76.40
2019-05-15T02:05:43.879Z,76.90
2019-05-15T02:08:14.920Z,76.10
2019-05-15T02:10:46.136Z,75.90
2019-05-15T02:13:18.612Z,74.80
2019-05-15T02:15:48.989Z,74.10
2019-05-15T02:18:20.187Z,73.90
2019-05-15T02:20:50.963Z,72.80
2019-05-15T02:23:22.034Z,72.80
2019-05-15T02:25:53.316Z,72.80
2019-05-15T02:28:24.098Z,71.70
2019-05-15T02:30:54.856Z,70.10
2019-05-15T02:33:25.901Z,69.60
2019-05-15T02:35:59.241Z,68.90
2019-05-15T02:38:29.580Z,67.70
2019-05-15T02:41:00.932Z,67.20
2019-05-15T02:43:31.880Z,68.10
2019-05-15T02:46:02.723Z,68.00
2019-05-15T02:48:33.732Z,67.90
2019-05-15T02:51:04.692Z,67.70
2019-05-15T02:53:39.224Z,67.90
2019-05-15T02:56:09.398Z,68.20
2019-05-15T02:58:41.456Z,68.60
2019-05-15T03:01:12.655Z,68.70
2019-05-15T03:03:43.839Z,67.40
2019-05-15T03:06:19.015Z,68.60
2019-05-15T03:08:49.496Z,68.10
2019-05-15T03:11:20.858Z,66.70
2019-05-15T03:13:51.894Z,67.20
2019-05-15T03:16:22.875Z,66.60
2019-05-15T03:18:55.967Z,67.90
2019-05-15T03:21:29.280Z,68.30
2019-05-15T03:23:59.447Z,65.80
2019-05-15T03:26:30.613Z,65.00
2019-05-15T03:29:01.515Z,64.60
2019-05-15T03:31:48.905Z,63.90
2019-05-15T03:34:12.880Z,64.50
2019-05-15T03:36:44.162Z,64.10
2019-05-15T03:39:10.122Z,64.50
2019-05-15T03:41:40.951Z,64.40
2019-05-15T03:44:12.209Z,63.70
2019-05-15T03:46:43.073Z,63.90
2019-05-15T03:49:13.885Z,64.60
2019-05-15T03:51:50.076Z,65.00
2019-05-15T03:54:19.624Z,64.80
2019-05-15T03:56:50.878Z,63.30
2019-05-15T03:59:22.758Z,63.80
2019-05-15T04:01:54.629Z,63.40
2019-05-15T04:04:25.798Z,63.80
2019-05-15T04:06:59.610Z,63.90
2019-05-15T04:09:29.627Z,64.50
2019-05-15T04:12:00.555Z,62.60
2019-05-15T04:14:31.702Z,62.40
2019-05-15T04:17:03.179Z,62.90
2019-05-15T04:19:34.152Z,63.30
2019-05-15T04:22:05.154Z,61.00
2019-05-15T04:24:39.222Z,60.20
2019-05-15T04:27:10.489Z,60.30
2019-05-15T04:29:41.304Z,60.90
2019-05-15T04:32:12.094Z,59.70
2019-05-15T04:34:43.073Z,59.80
2019-05-15T04:37:14.650Z,59.70
2019-05-15T04:39:45.416Z,60.30
2019-05-15T04:42:16.223Z,60.50
2019-05-15T04:44:49.541Z,60.80
2019-05-15T04:47:19.668Z,60.20
2019-05-15T04:49:50.705Z,56.30
2019-05-15T04:52:21.823Z,57.70
2019-05-15T04:54:52.977Z,55.40
2019-05-15T04:57:23.863Z,55.90
2019-05-15T04:59:55.519Z,54.50
2019-05-15T05:02:31.686Z,54.20
2019-05-15T05:05:00.433Z,53.10
2019-05-15T05:07:34.760Z,54.10
2019-05-15T05:10:09.567Z,54.30
2019-05-15T05:12:41.779Z,52.80
2019-05-15T05:15:11.469Z,52.30
2019-05-15T05:17:42.473Z,52.50
2019-05-15T05:20:13.348Z,51.90
2019-05-15T05:22:44.724Z,49.60
2019-05-15T05:25:15.731Z,47.70
2019-05-15T05:27:48.541Z,48.70
2019-05-15T05:30:19.176Z,48.50
2019-05-15T05:32:50.706Z,47.50
2019-05-15T05:35:21.874Z,48.60
2019-05-15T05:37:52.781Z,49.10
2019-05-15T05:40:23.625Z,48.80
2019-05-15T05:42:54.426Z,49.70
2019-05-15T05:45:25.453Z,49.30
2019-05-15T05:47:57.979Z,49.00
2019-05-15T05:50:31.133Z,49.50
2019-05-15T05:53:02.347Z,48.10
2019-05-15T05:55:33.147Z,49.80
2019-05-15T05:58:04.033Z,49.60
2019-05-15T06:00:39.174Z,49.50
2019-05-15T06:03:10.445Z,50.00
2019-05-15T06:05:41.390Z,47.60
2019-05-15T06:08:12.535Z,47.20
2019-05-15T06:10:43.624Z,48.00
2019-05-15T06:13:14.401Z,48.10
2019-05-15T06:15:48.463Z,47.70
2019-05-15T06:18:19.634Z,48.20
2019-05-15T06:20:50.916Z,48.20
2019-05-15T06:23:24.398Z,48.60
2019-05-15T06:25:53.806Z,47.50
2019-05-15T06:28:25.105Z,46.80
2019-05-15T06:31:00.386Z,49.10
2019-05-15T06:33:28.050Z,48.10
2019-05-15T06:35:59.443Z,48.10
2019-05-15T06:38:30.906Z,48.20
2019-05-15T06:41:02.107Z,47.70
2019-05-15T06:43:33.181Z,47.20
2019-05-15T06:46:04.012Z,47.20
2019-05-15T06:48:35.260Z,47.80
2019-05-15T06:51:08.602Z,47.70
2019-05-15T06:53:38.682Z,47.60
2019-05-15T06:56:09.952Z,48.30
2019-05-15T06:58:41.024Z,46.70
2019-05-15T07:01:11.942Z,47.90
2019-05-15T07:03:42.935Z,47.00
2019-05-15T07:06:13.823Z,47.40
2019-05-15T07:08:44.710Z,47.70
2019-05-15T07:11:16.041Z,45.90
2019-05-15T07:13:48.617Z,44.40
2019-05-15T07:16:19.295Z,44.20
2019-05-15T07:18:50.154Z,45.80
2019-05-15T07:21:21.193Z,46.70
2019-05-15T07:23:52.357Z,46.60
2019-05-15T07:26:23.113Z,46.00
2019-05-15T07:28:54.317Z,46.60
2019-05-15T07:31:26.133Z,47.00
2019-05-15T07:33:59.536Z,45.30
2019-05-15T07:36:29.470Z,47.10
2019-05-15T07:39:00.847Z,47.20
2019-05-15T07:41:32.170Z,46.70
2019-05-15T07:44:03.338Z,47.20
2019-05-15T07:46:34.587Z,46.70
2019-05-15T07:49:05.800Z,47.10
2019-05-15T07:51:38.139Z,46.60
2019-05-15T07:54:09.549Z,46.90
2019-05-15T07:56:40.736Z,47.60
2019-05-15T07:59:12.047Z,48.00
2019-05-15T08:01:42.882Z,47.70
2019-05-15T08:04:25.237Z,48.70
2019-05-15T08:06:46.158Z,48.60
2019-05-15T08:09:17.988Z,47.70
2019-05-15T08:11:49.197Z,47.50
2019-05-15T08:14:20.038Z,47.80
2019-05-15T08:16:50.987Z,48.80
2019-05-15T08:19:22.453Z,50.80
2019-05-15T08:21:53.718Z,51.50
2019-05-15T08:24:24.748Z,51.50
2019-05-15T08:26:57.975Z,52.30
2019-05-15T08:29:28.807Z,53.40
2019-05-15T08:31:59.761Z,54.90
2019-05-15T08:34:31.640Z,56.90
2019-05-15T08:37:02.846Z,57.90
2019-05-15T08:39:33.715Z,58.30
2019-05-15T08:42:04.845Z,59.30
2019-05-15T08:44:38.487Z,60.80
2019-05-15T08:47:08.373Z,62.10
2019-05-15T08:49:40.971Z,63.50
2019-05-15T08:52:11.874Z,63.90
2019-05-15T08:54:43.884Z,62.90
2019-05-15T08:57:14.891Z,62.90
2019-05-15T08:59:48.687Z,63.10
2019-05-15T09:02:18.622Z,64.70
2019-05-15T09:04:49.592Z,64.60
2019-05-15T09:07:20.751Z,63.70
2019-05-15T09:09:51.556Z,63.90
2019-05-15T09:12:22.507Z,64.00
2019-05-15T09:14:54.314Z,63.80
2019-05-15T09:17:25.280Z,63.40
2019-05-15T09:19:58.659Z,64.30
2019-05-15T09:22:29.135Z,64.00
2019-05-15T09:25:00.177Z,63.70
2019-05-15T09:27:31.091Z,63.60
2019-05-15T09:30:02.753Z,62.90
2019-05-15T09:32:33.563Z,62.20
2019-05-15T09:35:05.361Z,61.40
2019-05-15T09:37:38.529Z,60.80
2019-05-15T09:40:10.022Z,59.10
2019-05-15T09:42:41.421Z,59.40
2019-05-15T09:45:13.151Z,59.20
2019-05-15T09:47:44.211Z,59.70
2019-05-15T09:50:15.837Z,59.70
2019-05-15T09:52:49.858Z,59.20
2019-05-15T09:55:19.956Z,59.70
2019-05-15T09:57:51.005Z,59.50
2019-05-15T10:00:22.272Z,59.50
2019-05-15T10:02:53.424Z,60.50
2019-05-15T10:05:24.416Z,60.20
2019-05-15T10:07:55.162Z,60.90
2019-05-15T10:10:28.311Z,61.20
2019-05-15T10:12:59.458Z,61.70
2019-05-15T10:15:30.558Z,62.60
2019-05-15T10:18:01.785Z,62.80
2019-05-15T10:20:32.614Z,62.50
2019-05-15T10:23:03.545Z,63.00
2019-05-15T10:25:34.430Z,63.10
2019-05-15T10:28:05.507Z,63.60
2019-05-15T10:30:39.243Z,63.70
2019-05-15T10:33:08.928Z,64.00
2019-05-15T10:35:40.247Z,63.70
2019-05-15T10:38:11.196Z,63.50
2019-05-15T10:40:58.623Z,63.80
2019-05-15T10:43:14.689Z,64.00
2019-05-15T10:45:49.750Z,64.00
2019-05-15T10:48:18.998Z,64.80
2019-05-15T10:50:50.170Z,63.80
2019-05-15T10:53:21.519Z,64.10
2019-05-15T10:55:52.659Z,64.60
2019-05-15T10:58:23.597Z,64.70
2019-05-15T11:00:54.309Z,64.80
2019-05-15T11:03:25.498Z,64.90
2019-05-15T11:05:57.957Z,65.00
2019-05-15T11:08:28.944Z,65.30
2019-05-15T11:11:00.448Z,65.50
2019-05-15T11:13:31.306Z,65.40
2019-05-15T11:16:01.893Z,65.50
2019-05-15T11:18:33.095Z,65.50
2019-05-15T11:21:03.919Z,65.40
2019-05-15T11:23:35.144Z,65.30
2019-05-15T11:26:08.610Z,65.50
2019-05-15T11:28:39.132Z,65.60
2019-05-15T11:31:10.636Z,65.60
2019-05-15T11:33:41.863Z,65.80
2019-05-15T11:36:13.038Z,66.10
2019-05-15T11:38:44.277Z,66.20
2019-05-15T11:41:15.319Z,66.40
2019-05-15T11:43:49.264Z,66.70
2019-05-15T11:46:18.714Z,66.80
2019-05-15T11:48:50.028Z,67.20
2019-05-15T11:51:21.154Z,67.90
2019-05-15T11:53:52.047Z,69.00
2019-05-15T11:56:23.228Z,68.40
2019-05-15T11:58:54.030Z,68.60
2019-05-15T12:01:25.109Z,69.00
2019-05-15T12:03:58.363Z,69.20
2019-05-15T12:06:29.278Z,69.40
2019-05-15T12:09:00.230Z,69.50
2019-05-15T12:11:36.657Z,69.50
2019-05-15T12:14:04.005Z,69.80
2019-05-15T12:16:36.389Z,70.10
2019-05-15T12:19:09.523Z,70.60
2019-05-15T12:21:43.770Z,71.20
2019-05-15T12:24:14.735Z,71.60
2019-05-15T12:26:45.552Z,72.60
2019-05-15T12:29:16.729Z,73.20
2019-05-15T12:31:49.591Z,73.30
2019-05-15T12:34:19.918Z,73.40
2019-05-15T12:36:57.470Z,73.90
2019-05-15T12:39:23.087Z,73.50
2019-05-15T12:59:40.343Z,75.70
2019-05-15T13:02:11.755Z,76.00
2019-05-15T13:04:42.464Z,75.60
2019-05-15T13:07:16.971Z,75.80
2019-05-15T13:09:46.166Z,76.00
2019-05-15T13:12:18.257Z,76.40
2019-05-15T13:14:49.235Z,77.50
2019-05-15T13:17:20.521Z,77.20
2019-05-15T13:19:51.205Z,77.30
2019-05-15T13:22:24.731Z,76.80
2019-05-15T13:24:54.725Z,77.70
2019-05-15T13:27:25.379Z,77.30
2019-05-15T13:29:58.227Z,77.20
2019-05-15T13:32:29.263Z,77.70
2019-05-15T13:34:59.989Z,77.50
2019-05-15T13:37:31.122Z,77.50
2019-05-15T13:40:02.397Z,77.40
2019-05-15T13:42:33.348Z,77.60
2019-05-15T13:45:04.502Z,77.10
2019-05-15T13:47:35.430Z,77.10
2019-05-15T13:50:08.091Z,77.20
2019-05-15T13:52:39.561Z,76.40
2019-05-15T13:55:10.970Z,76.30
2019-05-15T13:57:42.138Z,76.20
2019-05-15T14:00:13.975Z,76.20
2019-05-15T14:02:44.832Z,76.10
2019-05-15T14:05:16.259Z,76.10
2019-05-15T14:07:50.702Z,76.10
2019-05-15T14:10:19.645Z,76.20
2019-05-15T14:12:50.606Z,76.90
2019-05-15T14:15:21.580Z,75.90
2019-05-15T14:17:52.742Z,75.80
2019-05-15T14:20:23.762Z,76.30
2019-05-15T14:22:54.656Z,76.30
2019-05-15T14:25:25.826Z,76.30
2019-05-15T14:27:59.122Z,76.20
2019-05-15T14:30:29.408Z,76.20
2019-05-15T14:33:00.817Z,76.20
2019-05-15T14:35:31.652Z,76.50
2019-05-15T14:38:06.693Z,76.30
2019-05-15T14:40:35.401Z,76.20
2019-05-15T14:43:08.532Z,76.40
2019-05-15T14:45:38.899Z,76.40
2019-05-15T14:48:09.952Z,76.50
2019-05-15T14:50:40.777Z,76.60
2019-05-15T14:53:12.121Z,76.80
2019-05-15T14:55:44.237Z,76.80
2019-05-15T14:58:15.333Z,77.00
2019-05-15T15:00:49.741Z,77.50
2019-05-15T15:03:18.715Z,77.30
2019-05-15T15:05:49.530Z,77.60
2019-05-15T15:08:24.821Z,77.60
2019-05-15T15:10:52.556Z,78.10
2019-05-15T15:13:23.514Z,78.40
2019-05-15T15:15:54.416Z,78.30
2019-05-15T15:18:27.941Z,78.50
2019-05-15T15:20:58.139Z,79.20
2019-05-15T15:23:28.949Z,79.10
2019-05-15T15:25:59.908Z,79.10
2019-05-15T15:28:30.844Z,79.40
2019-05-15T15:31:01.740Z,79.50
2019-05-15T15:33:32.940Z,79.60
2019-05-15T15:36:03.972Z,79.60
2019-05-15T15:38:40.880Z,79.70
2019-05-15T15:41:08.559Z,81.00
2019-05-15T15:43:39.501Z,80.60
2019-05-15T15:46:10.631Z,80.40
2019-05-15T15:48:41.475Z,80.60
2019-05-15T15:51:12.402Z,80.30
2019-05-15T15:53:43.624Z,80.30
2019-05-15T15:56:14.848Z,80.20
2019-05-15T15:58:45.478Z,80.60
2019-05-15T16:01:18.371Z,80.50
2019-05-15T16:03:48.603Z,80.40
2019-05-15T16:06:19.663Z,80.60
2019-05-15T16:08:55.111Z,80.80
2019-05-15T16:11:22.953Z,80.70
2019-05-15T16:13:54.049Z,81.00
2019-05-15T16:16:25.087Z,81.00
2019-05-15T16:18:55.892Z,80.90
2019-05-15T16:21:28.782Z,81.00
2019-05-15T16:23:59.163Z,81.30
2019-05-15T16:26:30.057Z,81.30
2019-05-15T16:29:01.618Z,81.30
2019-05-15T16:31:32.691Z,81.50
2019-05-15T16:34:03.726Z,81.40
2019-05-15T16:36:34.820Z,81.30
2019-05-15T16:39:09.200Z,81.70
2019-05-15T16:41:39.167Z,81.60
2019-05-15T16:44:10.253Z,81.50
2019-05-15T16:46:41.720Z,81.40
2019-05-15T16:49:12.683Z,81.50
2019-05-15T16:51:43.910Z,81.30
2019-05-15T16:54:14.710Z,81.90
2019-05-15T16:56:48.526Z,82.30
2019-05-15T16:59:18.263Z,81.90
2019-05-15T17:01:49.320Z,81.90
2019-05-15T17:04:20.217Z,82.60
2019-05-15T17:06:51.257Z,82.00
2019-05-15T17:09:22.187Z,81.70
2019-05-15T17:11:53.082Z,82.00
2019-05-15T17:14:24.632Z,81.90
2019-05-15T17:16:55.569Z,81.90
2019-05-15T17:19:29.141Z,82.00
2019-05-15T17:21:58.948Z,82.40
2019-05-15T17:24:30.060Z,82.10
2019-05-15T17:27:00.962Z,82.30
2019-05-15T17:29:31.846Z,82.40
2019-05-15T17:32:02.811Z,82.50
2019-05-15T17:34:33.837Z,82.80
2019-05-15T17:37:05.204Z,82.90
2019-05-15T17:39:38.198Z,83.10
2019-05-15T17:42:08.419Z,82.90
2019-05-15T17:44:39.256Z,82.70
2019-05-15T17:47:10.216Z,82.90
2019-05-15T17:49:41.347Z,83.10
2019-05-15T17:52:12.298Z,83.40
2019-05-15T17:54:45.124Z,83.30
2019-05-15T17:57:15.730Z,83.20
2019-05-15T17:59:48.512Z,83.60
2019-05-15T18:02:19.137Z,83.70
2019-05-15T18:04:49.962Z,83.90
2019-05-15T18:07:21.011Z,83.80
2019-05-15T18:09:54.457Z,84.10
2019-05-15T18:12:24.150Z,84.00
2019-05-15T18:14:54.858Z,84.10
2019-05-15T18:17:25.829Z,84.00
2019-05-15T18:19:58.123Z,84.00
2019-05-15T18:22:28.746Z,84.00
2019-05-15T18:24:59.874Z,83.50
2019-05-15T18:27:30.942Z,83.80
2019-05-15T18:30:01.791Z,84.00
2019-05-15T18:32:33.010Z,84.00
2019-05-15T18:35:03.876Z,84.60
2019-05-15T18:37:34.822Z,84.10
2019-05-15T18:40:10.008Z,84.10
2019-05-15T18:42:39.816Z,84.20
2019-05-15T18:45:11.038Z,84.10
2019-05-15T18:47:41.970Z,84.10
2019-05-15T18:50:14.330Z,84.10
2019-05-15T18:52:45.072Z,84.10
2019-05-15T18:55:18.269Z,85.30
2019-05-15T18:57:48.733Z,85.10
2019-05-15T19:00:20.274Z,85.10
2019-05-15T19:02:51.559Z,84.80
2019-05-15T19:05:22.227Z,84.70
2019-05-15T19:07:53.079Z,84.40
2019-05-15T19:10:24.421Z,84.50
2019-05-15T19:12:57.886Z,85.90
2019-05-15T19:15:28.735Z,84.60
2019-05-15T19:17:59.861Z,85.10
2019-05-15T19:20:31.879Z,84.70
2019-05-15T19:23:02.639Z,84.70
2019-05-15T19:25:33.891Z,84.40
2019-05-15T19:28:04.652Z,84.40
2019-05-15T19:30:35.509Z,84.40
2019-05-15T19:33:07.810Z,84.10
2019-05-15T19:35:38.896Z,84.10
2019-05-15T19:38:09.755Z,84.10
2019-05-15T19:40:40.996Z,84.00
2019-05-15T19:43:11.965Z,84.40
2019-05-15T19:45:42.834Z,84.00
2019-05-15T19:48:13.897Z,84.00
2019-05-15T19:50:44.792Z,83.80
2019-05-15T19:53:15.853Z,83.80
2019-05-15T19:55:48.348Z,83.80
2019-05-15T19:58:19.255Z,83.60
2019-05-15T20:00:51.625Z,83.90
2019-05-15T20:03:22.707Z,83.60
2019-05-15T20:05:53.679Z,83.80
2019-05-15T20:08:24.694Z,83.60
2019-05-15T20:10:55.895Z,83.80
2019-05-15T20:13:28.864Z,83.70
2019-05-15T20:15:58.862Z,83.60
2019-05-15T20:18:29.810Z,83.70
2019-05-15T20:21:00.616Z,83.80
2019-05-15T20:23:31.464Z,83.20
2019-05-15T20:26:03.325Z,83.80
2019-05-15T20:28:34.301Z,83.80
2019-05-15T20:31:05.199Z,84.60
2019-05-15T20:33:37.854Z,83.90
2019-05-15T20:36:09.152Z,84.20
2019-05-15T20:38:40.080Z,84.30
2019-05-15T20:41:14.415Z,84.40
2019-05-15T20:43:45.470Z,84.50
2019-05-15T20:46:16.313Z,84.60
2019-05-15T20:48:48.725Z,84.80
2019-05-15T20:51:20.042Z,85.80
2019-05-15T20:53:51.006Z,85.00
2019-05-15T20:56:22.625Z,85.00
2019-05-15T20:58:53.392Z,85.10
2019-05-15T21:01:24.142Z,85.20
2019-05-15T21:03:55.166Z,85.50
2019-05-15T21:06:28.242Z,85.50
2019-05-15T21:08:58.404Z,85.30
2019-05-15T21:11:29.917Z,85.20
2019-05-15T21:14:00.868Z,85.30
2019-05-15T21:16:31.722Z,85.50
2019-05-15T21:19:02.687Z,85.70
2019-05-15T21:21:33.687Z,85.80
2019-05-15T21:24:05.360Z,85.90
2019-05-15T21:26:38.294Z,85.60
2019-05-15T21:29:09.561Z,86.00
2019-05-15T21:31:40.406Z,86.10
2019-05-15T21:34:11.418Z,86.00
2019-05-15T21:36:42.428Z,86.20
2019-05-15T21:39:13.350Z,86.30
2019-05-15T21:41:44.186Z,86.40
2019-05-15T21:44:15.145Z,86.30
2019-05-15T21:46:49.773Z,86.30
2019-05-15T21:49:19.167Z,86.50
2019-05-15T21:51:51.162Z,87.30
2019-05-15T21:54:22.741Z,86.60
2019-05-15T21:57:06.755Z,86.40
2019-05-15T21:59:27.398Z,86.60
2019-05-15T22:01:59.398Z,87.30
2019-05-15T22:04:30.559Z,86.70
2019-05-15T22:07:01.599Z,86.70
2019-05-15T22:09:32.732Z,86.80
2019-05-15T22:12:03.789Z,86.80
2019-05-15T22:14:34.755Z,86.80
2019-05-15T22:17:06.068Z,86.60
2019-05-15T22:19:38.546Z,87.00
2019-05-15T22:22:08.951Z,86.90
2019-05-15T22:24:40.270Z,87.90
2019-05-15T22:27:11.421Z,87.30
2019-05-15T22:29:42.646Z,87.30
2019-05-15T22:32:13.719Z,88.20
2019-05-15T22:34:44.549Z,88.00
2019-05-15T22:37:17.882Z,87.80
2019-05-15T22:39:47.774Z,87.90
2019-05-15T22:42:18.702Z,87.90
2019-05-15T22:44:49.911Z,88.40
2019-05-15T22:47:20.829Z,87.90
2019-05-15T22:49:51.782Z,87.70
2019-05-15T22:52:23.061Z,87.60
2019-05-15T22:54:53.886Z,88.70
2019-05-15T22:57:24.803Z,88.00
2019-05-15T22:59:58.045Z,87.80
2019-05-15T23:02:28.425Z,87.70
2019-05-15T23:05:00.439Z,88.20
2019-05-15T23:07:31.657Z,88.10
2019-05-15T23:10:02.331Z,88.10
2019-05-15T23:12:33.159Z,89.10
2019-05-15T23:15:04.915Z,88.60
2019-05-15T23:17:35.696Z,88.80
2019-05-15T23:20:08.957Z,88.30
2019-05-15T23:22:40.049Z,89.20
2019-05-15T23:25:11.288Z,89.00
2019-05-15T23:27:42.343Z,88.90
2019-05-15T23:30:13.489Z,89.90
2019-05-15T23:32:44.357Z,89.40
2019-05-15T23:35:17.573Z,89.10
2019-05-15T23:37:48.564Z,89.00
2019-05-15T23:40:19.713Z,89.30
2019-05-15T23:42:50.815Z,89.50
2019-05-15T23:45:21.569Z,88.80
2019-05-15T23:47:52.826Z,89.10
2019-05-15T23:50:23.694Z,89.30
2019-05-15T23:52:54.584Z,90.00
2019-05-15T23:55:28.266Z,89.30
2019-05-15T23:57:58.417Z,88.70
